Time;durP1;ratioP1;P1;durP2;ratioP2;P2;SDS_P1;SDS_P2;PMS_P1;PMS_P2;Temp;Humidity;BMP_temperature;BMP_pressure;BME280_temperature;BME280_humidity;BME280_pressure;Samples;Min_cycle;Max_cycle;Signal;HPM_P1;HPM_P2
2024/02/13 00:01:42;;;;;;;11.45;3.00;;;6.40;99.90;;;;;;5063491;28;20033;-65
2024/02/13 00:04:10;;;;;;;7.43;2.90;;;6.40;99.90;;;;;;5062786;28;20032;-67
2024/02/13 00:06:36;;;;;;;13.63;3.28;;;6.40;99.90;;;;;;5060976;28;20531;-65
2024/02/13 00:09:02;;;;;;;5.95;3.67;;;6.40;99.90;;;;;;5064361;28;20059;-65
2024/02/13 00:11:27;;;;;;;13.40;4.00;;;6.40;99.90;;;;;;5062049;28;20032;-66
2024/02/13 00:13:53;;;;;;;13.23;4.35;;;6.50;99.90;;;;;;5062456;28;20032;-65
2024/02/13 00:16:20;;;;;;;11.18;4.82;;;6.50;99.90;;;;;;5063385;28;20032;-66
2024/02/13 00:18:50;;;;;;;10.82;4.57;;;6.50;99.90;;;;;;5064124;28;20428;-66
2024/02/13 00:21:16;;;;;;;9.68;5.10;;;6.50;99.90;;;;;;5066730;28;20052;-66
2024/02/13 00:23:42;;;;;;;12.55;5.53;;;6.50;99.90;;;;;;5065167;28;20039;-65
2024/02/13 00:26:09;;;;;;;19.00;6.60;;;6.60;99.90;;;;;;5060234;28;20032;-66
2024/02/13 00:28:36;;;;;;;10.80;5.88;;;6.60;99.90;;;;;;5064323;28;20029;-66
2024/02/13 00:31:04;;;;;;;18.45;6.70;;;6.60;99.90;;;;;;5058856;28;20098;-67
2024/02/13 00:33:31;;;;;;;14.05;6.38;;;6.60;99.90;;;;;;5068109;28;20098;-65
2024/02/13 00:35:56;;;;;;;17.45;7.55;;;6.60;99.90;;;;;;5064799;28;20028;-66
2024/02/13 00:38:22;;;;;;;15.23;7.05;;;6.70;99.90;;;;;;5066813;28;20028;-65
2024/02/13 00:40:48;;;;;;;12.80;6.47;;;6.70;99.90;;;;;;5063464;28;20537;-65
2024/02/13 00:43:19;;;;;;;14.98;7.75;;;6.70;99.90;;;;;;5078640;28;20561;-64
2024/02/13 00:45:46;;;;;;;16.48;7.15;;;6.70;99.90;;;;;;5062066;28;20064;-66
2024/02/13 00:48:12;;;;;;;15.17;7.50;;;6.80;99.90;;;;;;5061978;28;20016;-65
2024/02/13 00:50:38;;;;;;;22.98;8.98;;;6.80;99.90;;;;;;5061726;28;20051;-66
2024/02/13 00:53:05;;;;;;;21.92;7.85;;;6.80;99.90;;;;;;5057697;28;20486;-66
2024/02/13 00:55:31;;;;;;;15.02;7.78;;;6.80;99.90;;;;;;5065868;28;20032;-66
2024/02/13 00:57:57;;;;;;;20.55;8.52;;;6.80;99.90;;;;;;5064732;28;20066;-65
2024/02/13 01:00:24;;;;;;;20.08;8.48;;;6.80;99.90;;;;;;5064585;28;20052;-65
2024/02/13 01:02:52;;;;;;;17.55;8.50;;;6.80;99.90;;;;;;5067078;28;20610;-66
2024/02/13 01:05:18;;;;;;;23.90;9.18;;;6.90;99.90;;;;;;5062485;28;20082;-67
2024/02/13 01:07:43;;;;;;;23.92;8.40;;;6.90;99.90;;;;;;5060906;28;20033;-65
2024/02/13 01:10:09;;;;;;;19.17;8.25;;;6.90;99.90;;;;;;5060720;28;20056;-65
2024/02/13 01:12:36;;;;;;;18.02;9.38;;;6.90;99.90;;;;;;5064284;28;20066;-66
2024/02/13 01:15:02;;;;;;;21.40;9.00;;;6.90;99.90;;;;;;5064795;28;20481;-65
2024/02/13 01:17:28;;;;;;;20.40;8.30;;;6.90;99.90;;;;;;5060777;28;20544;-65
2024/02/13 01:19:54;;;;;;;17.48;8.25;;;6.90;99.90;;;;;;5060676;28;20040;-68
2024/02/13 01:22:20;;;;;;;18.25;8.60;;;6.90;99.90;;;;;;5064633;28;20082;-65
2024/02/13 01:24:46;;;;;;;16.65;8.45;;;6.90;99.90;;;;;;5059944;28;20134;-66
2024/02/13 01:27:15;;;;;;;18.33;9.00;;;6.90;99.90;;;;;;5066036;28;20056;-66
2024/02/13 01:29:40;;;;;;;20.27;8.93;;;6.90;99.90;;;;;;5065337;28;20043;-66
2024/02/13 01:32:07;;;;;;;18.17;8.60;;;6.90;99.90;;;;;;5061483;28;20036;-66
2024/02/13 01:34:32;;;;;;;21.08;8.00;;;7.00;99.90;;;;;;5062719;28;20032;-65
2024/02/13 01:36:58;;;;;;;22.33;8.93;;;6.90;99.90;;;;;;5060600;28;20025;-65
2024/02/13 01:39:24;;;;;;;15.38;8.30;;;6.90;99.90;;;;;;5058115;28;20036;-64
2024/02/13 01:41:51;;;;;;;21.50;8.68;;;6.90;99.90;;;;;;5058973;28;20032;-65
2024/02/13 01:44:16;;;;;;;20.88;9.05;;;7.00;99.90;;;;;;5056920;28;20108;-65
2024/02/13 01:46:42;;;;;;;13.98;7.60;;;6.90;99.90;;;;;;5063467;28;20136;-65
2024/02/13 01:49:09;;;;;;;24.67;8.18;;;6.90;99.90;;;;;;5064310;28;20501;-65
2024/02/13 01:51:40;;;;;;;15.60;7.30;;;6.90;99.90;;;;;;5059090;28;20486;-66
2024/02/13 01:54:10;;;;;;;17.75;7.40;;;6.80;99.90;;;;;;5065686;28;20066;-66
2024/02/13 01:56:38;;;;;;;19.25;7.47;;;6.90;99.90;;;;;;5061340;28;20078;-66
2024/02/13 01:59:04;;;;;;;15.27;6.80;;;6.90;99.90;;;;;;5062471;28;20035;-65
2024/02/13 02:01:30;;;;;;;11.38;7.03;;;6.80;99.90;;;;;;5058633;28;20068;-66
2024/02/13 02:03:59;;;;;;;13.50;6.97;;;6.80;99.90;;;;;;5063993;28;20044;-65
2024/02/13 02:06:25;;;;;;;17.42;7.53;;;6.80;99.90;;;;;;5066279;28;20067;-67
2024/02/13 02:08:51;;;;;;;21.13;7.88;;;6.80;99.90;;;;;;5058389;28;20431;-66
2024/02/13 02:11:17;;;;;;;15.60;6.97;;;6.80;99.90;;;;;;5065048;28;20020;-66
2024/02/13 02:13:43;;;;;;;17.52;7.43;;;6.80;99.90;;;;;;5064556;28;20029;-65
2024/02/13 02:16:09;;;;;;;18.75;7.68;;;6.80;99.90;;;;;;5065269;28;20090;-66
2024/02/13 02:18:34;;;;;;;15.48;7.55;;;6.80;99.90;;;;;;5057866;28;20592;-65
2024/02/13 02:21:00;;;;;;;14.75;7.20;;;6.70;99.90;;;;;;5062517;28;20032;-66
2024/02/13 02:23:26;;;;;;;13.07;5.78;;;6.70;99.90;;;;;;5063261;28;20028;-66
2024/02/13 02:25:52;;;;;;;18.00;6.50;;;6.70;99.90;;;;;;5060465;28;20017;-66
2024/02/13 02:28:18;;;;;;;18.27;6.00;;;6.70;99.90;;;;;;5062416;28;20035;-65
2024/02/13 02:30:46;;;;;;;13.13;5.50;;;6.70;99.90;;;;;;5062658;28;20049;-65
2024/02/13 02:33:12;;;;;;;14.20;6.15;;;6.60;99.90;;;;;;5058886;28;20040;-65
2024/02/13 02:35:40;;;;;;;12.50;5.70;;;6.60;99.90;;;;;;5057503;28;20028;-66
2024/02/13 02:38:06;;;;;;;15.43;4.95;;;6.60;99.90;;;;;;5053316;28;20033;-65
2024/02/13 02:40:32;;;;;;;8.48;5.20;;;6.60;99.90;;;;;;5057400;28;20032;-64
2024/02/13 02:42:59;;;;;;;13.80;5.30;;;6.50;99.90;;;;;;5058833;28;20024;-67
2024/02/13 02:45:26;;;;;;;14.88;4.88;;;6.50;99.90;;;;;;5053441;28;20092;-67
2024/02/13 02:47:52;;;;;;;12.93;4.93;;;6.50;99.90;;;;;;5054170;28;20044;-64
2024/02/13 02:50:17;;;;;;;19.42;4.25;;;6.50;99.90;;;;;;5061460;28;20033;-65
2024/02/13 02:52:44;;;;;;;7.25;4.10;;;6.50;99.90;;;;;;5061729;28;20602;-65
2024/02/13 02:55:10;;;;;;;20.95;4.10;;;6.60;99.90;;;;;;5058723;28;20040;-68
2024/02/13 02:57:35;;;;;;;16.50;4.72;;;6.60;99.90;;;;;;5058682;28;20476;-64
2024/02/13 03:00:03;;;;;;;12.57;4.75;;;6.60;99.90;;;;;;5051863;28;20040;-65
2024/02/13 03:02:29;;;;;;;8.43;3.45;;;6.60;99.90;;;;;;5059992;28;20587;-66
2024/02/13 03:04:55;;;;;;;11.27;3.97;;;6.60;99.90;;;;;;5054623;28;20078;-66
2024/02/13 03:07:21;;;;;;;13.77;3.85;;;6.60;99.90;;;;;;5056193;28;20025;-65
2024/02/13 03:09:48;;;;;;;12.80;3.30;;;6.60;99.90;;;;;;5061775;28;20479;-67
2024/02/13 03:12:13;;;;;;;10.30;4.10;;;6.60;99.90;;;;;;5058904;28;23080;-66
2024/02/13 03:14:39;;;;;;;14.38;4.53;;;6.60;99.90;;;;;;5058756;28;20060;-66
2024/02/13 03:17:06;;;;;;;16.13;3.97;;;6.60;99.90;;;;;;5067149;28;20144;-66
2024/02/13 03:19:32;;;;;;;12.73;4.23;;;6.60;99.90;;;;;;5058582;28;20036;-65
2024/02/13 03:21:58;;;;;;;13.18;4.60;;;6.60;99.90;;;;;;5059505;28;20761;-66
2024/02/13 03:24:24;;;;;;;8.60;4.03;;;6.70;99.90;;;;;;5063378;28;20024;-65
2024/02/13 03:26:50;;;;;;;20.98;4.82;;;6.60;99.90;;;;;;5067126;28;20034;-66
2024/02/13 03:29:15;;;;;;;10.25;4.07;;;6.60;99.90;;;;;;5066690;28;20254;-66
2024/02/13 03:31:41;;;;;;;11.43;4.78;;;6.60;99.90;;;;;;5067814;28;20594;-64
2024/02/13 03:34:07;;;;;;;16.73;4.82;;;6.60;99.90;;;;;;5058775;28;20029;-64
2024/02/13 03:36:32;;;;;;;12.43;4.82;;;6.60;99.90;;;;;;5067511;28;20025;-65
2024/02/13 03:38:59;;;;;;;9.73;4.40;;;6.60;99.90;;;;;;5067001;28;20016;-66
2024/02/13 03:41:25;;;;;;;14.73;4.28;;;6.50;99.90;;;;;;5065596;28;20025;-67
2024/02/13 03:43:50;;;;;;;10.15;4.35;;;6.50;99.90;;;;;;5064129;28;20020;-64
2024/02/13 03:46:16;;;;;;;7.63;4.40;;;6.50;99.90;;;;;;5063850;28;20598;-67
2024/02/13 03:48:42;;;;;;;10.88;4.13;;;6.50;99.90;;;;;;5067820;28;20036;-66
2024/02/13 03:51:07;;;;;;;16.73;4.20;;;6.50;99.90;;;;;;5064237;28;20028;-68
2024/02/13 03:53:35;;;;;;;9.35;3.83;;;6.50;99.90;;;;;;5062796;28;20052;-66
2024/02/13 03:56:03;;;;;;;9.00;3.50;;;6.50;99.90;;;;;;5062785;28;20082;-66
2024/02/13 03:58:29;;;;;;;12.13;4.00;;;6.40;99.90;;;;;;5064049;28;20090;-66
2024/02/13 04:00:55;;;;;;;9.35;3.95;;;6.40;99.90;;;;;;5063097;28;20107;-67
2024/02/13 04:03:21;;;;;;;10.60;3.70;;;6.40;99.90;;;;;;5062495;28;20020;-65
2024/02/13 04:05:49;;;;;;;7.13;3.55;;;6.40;99.90;;;;;;5060181;28;20036;-66
2024/02/13 04:08:15;;;;;;;7.85;3.15;;;6.30;99.90;;;;;;5067099;28;20067;-66
2024/02/13 04:10:40;;;;;;;5.60;3.08;;;6.30;99.90;;;;;;5062109;28;20083;-67
2024/02/13 04:13:07;;;;;;;8.63;3.33;;;6.30;99.90;;;;;;5063880;28;20028;-66
2024/02/13 04:15:35;;;;;;;11.57;3.55;;;6.20;99.90;;;;;;5066639;28;20028;-66
2024/02/13 04:18:02;;;;;;;10.35;3.38;;;6.20;99.90;;;;;;5065883;28;20422;-65
2024/02/13 04:20:27;;;;;;;7.82;3.20;;;6.20;99.90;;;;;;5065104;28;20076;-67
2024/02/13 04:22:53;;;;;;;8.70;3.50;;;6.10;99.90;;;;;;5065047;28;20029;-65
2024/02/13 04:25:19;;;;;;;8.38;3.38;;;6.10;99.90;;;;;;5062629;28;20052;-67
2024/02/13 04:27:44;;;;;;;10.48;3.25;;;6.00;99.90;;;;;;5062518;28;21510;-67
2024/02/13 04:30:11;;;;;;;9.55;3.35;;;6.00;99.90;;;;;;5059636;28;20074;-67
2024/02/13 04:32:38;;;;;;;9.02;3.83;;;6.00;99.90;;;;;;5063972;28;20405;-66
2024/02/13 04:35:04;;;;;;;12.63;3.30;;;6.00;99.90;;;;;;5064325;28;20037;-65
2024/02/13 04:37:30;;;;;;;15.45;3.63;;;5.90;99.90;;;;;;5063837;28;20166;-66
2024/02/13 04:39:56;;;;;;;8.07;3.60;;;5.90;99.90;;;;;;5062677;28;20556;-65
2024/02/13 04:42:35;;;;;;;6.18;3.35;;;5.90;99.90;;;;;;5065273;28;20074;-68
2024/02/13 04:45:02;;;;;;;11.57;3.22;;;5.90;99.90;;;;;;5062350;28;20013;-66
2024/02/13 04:47:28;;;;;;;8.68;3.33;;;5.90;99.90;;;;;;5063551;28;20029;-66
2024/02/13 04:49:56;;;;;;;9.63;3.75;;;5.90;99.90;;;;;;5066728;28;20028;-68
2024/02/13 04:52:22;;;;;;;7.60;3.60;;;5.80;99.90;;;;;;5063750;28;20521;-67
2024/02/13 04:54:48;;;;;;;10.00;3.08;;;5.80;99.90;;;;;;5056601;28;20037;-67
2024/02/13 04:57:13;;;;;;;8.85;3.25;;;5.80;99.90;;;;;;5062388;28;20213;-67
2024/02/13 04:59:47;;;;;;;11.15;3.80;;;5.80;99.90;;;;;;5062221;28;20032;-67
2024/02/13 05:02:14;;;;;;;11.98;3.92;;;5.80;99.90;;;;;;5062118;28;20116;-66
2024/02/13 05:07:26;;;;;;;5.63;3.42;;;5.80;99.90;;;;;;5062316;28;20075;-66
2024/02/13 05:09:53;;;;;;;12.60;4.78;;;5.80;99.90;;;;;;5062572;28;20476;-67
2024/02/13 05:12:18;;;;;;;9.95;4.60;;;5.70;99.90;;;;;;5061242;28;20127;-66
2024/02/13 05:14:44;;;;;;;12.57;4.60;;;5.70;99.90;;;;;;5061795;28;20119;-66
2024/02/13 05:17:11;;;;;;;11.48;4.43;;;5.70;99.90;;;;;;5064507;28;20037;-65
2024/02/13 05:19:38;;;;;;;11.93;4.82;;;5.70;99.90;;;;;;5063042;28;20024;-66
2024/02/13 05:22:04;;;;;;;11.25;4.60;;;5.70;99.90;;;;;;5064899;28;20025;-67
2024/02/13 05:24:29;;;;;;;13.90;5.10;;;5.70;99.90;;;;;;5067083;28;20028;-66
2024/02/13 05:26:55;;;;;;;8.15;4.28;;;5.70;99.90;;;;;;5064300;28;20055;-66
2024/02/13 05:29:21;;;;;;;14.55;5.25;;;5.60;99.90;;;;;;5062140;28;20025;-66
2024/02/13 05:31:46;;;;;;;11.95;4.95;;;5.60;99.90;;;;;;5058134;28;20051;-66
2024/02/13 05:34:12;;;;;;;7.90;4.63;;;5.60;99.90;;;;;;5063820;28;20747;-66
2024/02/13 05:36:38;;;;;;;15.75;5.65;;;5.60;99.90;;;;;;5064952;28;20036;-66
2024/02/13 05:39:03;;;;;;;17.30;5.70;;;5.60;99.90;;;;;;5063132;28;20513;-65
2024/02/13 05:41:29;;;;;;;14.75;6.43;;;5.60;99.90;;;;;;5060056;28;20031;-66
2024/02/13 05:43:54;;;;;;;15.90;6.80;;;5.50;99.90;;;;;;5076517;28;20032;-66
2024/02/13 05:46:20;;;;;;;10.50;6.32;;;5.50;99.90;;;;;;5062074;28;20197;-66
2024/02/13 05:48:46;;;;;;;15.80;7.05;;;5.50;99.90;;;;;;5062589;28;20025;-65
2024/02/13 05:51:14;;;;;;;14.48;7.05;;;5.50;99.90;;;;;;5057784;28;20043;-67
2024/02/13 05:53:43;;;;;;;10.63;6.43;;;5.50;99.90;;;;;;5062966;28;20024;-66
2024/02/13 05:56:08;;;;;;;14.70;6.95;;;5.50;99.90;;;;;;5060987;28;20028;-66
2024/02/13 05:58:34;;;;;;;15.90;7.57;;;5.50;99.90;;;;;;5062444;28;20374;-69
2024/02/13 06:01:00;;;;;;;17.02;7.10;;;5.50;99.90;;;;;;5060885;28;20036;-66
2024/02/13 06:03:26;;;;;;;23.70;8.73;;;5.40;99.90;;;;;;5062304;28;20025;-65
2024/02/13 06:05:55;;;;;;;17.00;7.85;;;5.40;99.90;;;;;;5063719;28;20115;-66
2024/02/13 06:08:21;;;;;;;19.02;7.80;;;5.50;99.90;;;;;;5059168;28;20024;-67
2024/02/13 06:10:46;;;;;;;16.48;8.55;;;5.40;99.90;;;;;;5060010;28;20025;-68
2024/02/13 06:13:13;;;;;;;16.05;8.45;;;5.40;99.90;;;;;;5060887;28;20038;-66
2024/02/13 06:15:39;;;;;;;26.67;9.95;;;5.40;99.90;;;;;;5056639;28;20024;-66
2024/02/13 06:18:05;;;;;;;19.65;9.65;;;5.30;99.90;;;;;;5059484;28;20635;-67
2024/02/13 06:20:31;;;;;;;19.05;9.23;;;5.30;99.90;;;;;;5061935;28;20494;-66
2024/02/13 06:22:57;;;;;;;18.25;9.10;;;5.30;99.90;;;;;;5060815;28;20020;-67
2024/02/13 06:25:22;;;;;;;20.50;10.25;;;5.30;99.90;;;;;;5058530;28;20113;-66
2024/02/13 06:27:48;;;;;;;21.52;10.32;;;5.30;99.90;;;;;;5061770;28;20489;-66
2024/02/13 06:30:14;;;;;;;19.75;10.88;;;5.30;99.90;;;;;;5057892;28;20087;-66
2024/02/13 06:32:40;;;;;;;25.73;11.65;;;5.30;99.90;;;;;;5059428;28;20180;-70
2024/02/13 06:35:06;;;;;;;30.23;12.35;;;5.30;99.90;;;;;;5059824;28;20222;-67
2024/02/13 06:37:32;;;;;;;27.58;12.10;;;5.30;99.90;;;;;;5056494;28;20230;-66
2024/02/13 06:39:57;;;;;;;28.35;13.23;;;5.30;99.90;;;;;;5063233;28;20036;-66
2024/02/13 06:42:23;;;;;;;25.17;12.48;;;5.30;99.90;;;;;;5056585;28;20035;-65
2024/02/13 06:44:49;;;;;;;27.50;11.85;;;5.30;99.90;;;;;;5059587;28;20031;-67
2024/02/13 06:47:14;;;;;;;23.40;12.98;;;5.30;99.90;;;;;;5061725;28;20039;-65
2024/02/13 06:49:40;;;;;;;27.17;12.27;;;5.30;99.90;;;;;;5058532;28;20024;-68
2024/02/13 06:52:07;;;;;;;31.25;12.40;;;5.20;99.90;;;;;;5061862;28;20032;-66
2024/02/13 06:54:33;;;;;;;23.33;13.25;;;5.20;99.90;;;;;;5061396;28;20036;-67
2024/02/13 06:56:59;;;;;;;26.30;12.73;;;5.20;99.90;;;;;;5063351;28;20029;-66
2024/02/13 06:59:27;;;;;;;22.70;12.98;;;5.30;99.90;;;;;;5058679;28;20562;-66
2024/02/13 07:01:53;;;;;;;28.45;13.60;;;5.30;99.90;;;;;;5061022;28;20668;-66
2024/02/13 07:04:18;;;;;;;34.08;13.55;;;5.30;99.90;;;;;;5069263;28;20622;-65
2024/02/13 07:06:44;;;;;;;23.38;12.38;;;5.30;99.90;;;;;;5063121;28;20028;-65
2024/02/13 07:09:10;;;;;;;31.65;14.13;;;5.30;99.90;;;;;;5062578;28;20032;-66
2024/02/13 07:11:36;;;;;;;28.23;13.73;;;5.30;99.90;;;;;;5062914;28;20610;-66
2024/02/13 07:14:02;;;;;;;30.40;14.13;;;5.30;99.90;;;;;;5064881;28;20082;-67
2024/02/13 07:16:27;;;;;;;33.40;14.68;;;5.30;99.90;;;;;;5062457;28;20483;-65
2024/02/13 07:18:53;;;;;;;33.50;14.20;;;5.30;99.90;;;;;;5065663;28;20025;-66
2024/02/13 07:21:19;;;;;;;28.42;13.70;;;5.30;99.90;;;;;;5064639;28;20027;-66
2024/02/13 07:23:46;;;;;;;22.73;12.57;;;5.40;99.90;;;;;;5063712;28;20503;-65
2024/02/13 07:26:11;;;;;;;27.77;13.60;;;5.40;99.90;;;;;;5066799;28;20056;-66
2024/02/13 07:28:38;;;;;;;29.42;13.90;;;5.40;99.90;;;;;;5068237;28;20056;-65
2024/02/13 07:31:04;;;;;;;23.50;12.37;;;5.50;99.90;;;;;;5065481;28;20028;-66
2024/02/13 07:33:31;;;;;;;30.95;12.13;;;5.50;99.90;;;;;;5058579;28;20033;-66
2024/02/13 07:36:00;;;;;;;26.48;12.10;;;5.60;99.90;;;;;;5065387;28;20025;-66
2024/02/13 07:38:25;;;;;;;31.10;12.85;;;5.60;99.90;;;;;;5065437;28;20172;-70
2024/02/13 07:40:51;;;;;;;29.95;12.50;;;5.60;99.90;;;;;;5065462;28;20102;-68
2024/02/13 07:43:17;;;;;;;24.92;11.73;;;5.70;99.90;;;;;;5068709;28;20575;-64
2024/02/13 07:45:43;;;;;;;34.85;13.73;;;5.80;99.90;;;;;;5063594;28;20224;-65
2024/02/13 07:48:11;;;;;;;32.38;12.75;;;5.80;99.90;;;;;;5067998;28;20024;-67
2024/02/13 07:50:38;;;;;;;26.05;12.55;;;5.80;99.90;;;;;;5060119;28;20035;-67
2024/02/13 07:53:06;;;;;;;30.58;11.30;;;5.90;99.90;;;;;;5064023;28;20693;-67
2024/02/13 07:55:35;;;;;;;30.38;11.65;;;5.90;99.90;;;;;;5067164;28;20040;-67
2024/02/13 07:58:01;;;;;;;32.10;12.60;;;6.00;99.90;;;;;;5062563;28;20579;-66
2024/02/13 08:00:29;;;;;;;29.60;11.00;;;6.00;99.90;;;;;;5063918;28;20029;-67
2024/02/13 08:02:54;;;;;;;27.23;10.95;;;6.10;99.90;;;;;;5064971;28;20028;-67
2024/02/13 08:05:20;;;;;;;24.38;11.90;;;6.10;99.90;;;;;;5064129;28;20037;-67
2024/02/13 08:07:45;;;;;;;31.85;11.75;;;6.20;99.90;;;;;;5066146;28;20087;-67
2024/02/13 08:10:11;;;;;;;25.63;11.57;;;6.20;99.90;;;;;;5061482;28;20518;-67
2024/02/13 08:12:37;;;;;;;24.85;11.80;;;6.30;99.90;;;;;;5065355;28;20502;-67
2024/02/13 08:15:03;;;;;;;24.98;11.25;;;6.40;99.90;;;;;;5067231;28;20063;-66
2024/02/13 08:17:29;;;;;;;32.60;11.18;;;6.40;99.90;;;;;;5066994;28;20035;-66
2024/02/13 08:19:56;;;;;;;23.83;10.70;;;6.40;99.90;;;;;;5060953;28;20093;-66
2024/02/13 08:22:22;;;;;;;24.13;11.15;;;6.40;99.90;;;;;;5065541;28;20123;-67
2024/02/13 08:24:48;;;;;;;20.92;9.70;;;6.60;99.90;;;;;;5061982;28;20116;-66
2024/02/13 08:27:18;;;;;;;24.00;11.50;;;6.50;99.90;;;;;;5063688;28;20817;-66
2024/02/13 08:29:46;;;;;;;23.13;9.85;;;6.60;99.90;;;;;;5063090;28;20115;-65
2024/02/13 08:32:12;;;;;;;27.05;10.98;;;6.60;99.90;;;;;;5066734;28;20025;-70
2024/02/13 08:34:38;;;;;;;26.42;9.40;;;6.60;99.90;;;;;;5065069;28;20538;-65
2024/02/13 08:37:04;;;;;;;22.88;8.30;;;6.60;99.90;;;;;;5064782;28;20050;-66
2024/02/13 08:39:30;;;;;;;20.48;9.45;;;6.70;99.90;;;;;;5063254;28;20036;-66
2024/02/13 08:41:58;;;;;;;19.30;8.88;;;6.70;99.90;;;;;;5058757;28;20021;-66
2024/02/13 08:44:24;;;;;;;23.33;8.60;;;6.80;99.90;;;;;;5061760;28;20396;-65
2024/02/13 08:46:49;;;;;;;20.90;9.43;;;6.80;99.90;;;;;;5062568;28;20270;-66
2024/02/13 08:49:16;;;;;;;18.02;8.65;;;6.90;99.90;;;;;;5064933;28;20032;-66
2024/02/13 08:51:42;;;;;;;29.55;9.70;;;6.90;99.90;;;;;;5068315;28;20039;-66
2024/02/13 08:54:11;;;;;;;21.00;9.20;;;6.90;99.90;;;;;;5068188;28;20070;-65
2024/02/13 08:56:38;;;;;;;17.20;8.88;;;7.00;99.90;;;;;;5062501;28;20078;-68
2024/02/13 08:59:04;;;;;;;16.67;8.93;;;7.00;99.90;;;;;;5066259;28;20032;-66
2024/02/13 09:01:30;;;;;;;22.50;8.15;;;7.00;99.90;;;;;;5061435;28;20029;-65
2024/02/13 09:03:56;;;;;;;21.38;8.55;;;7.10;99.90;;;;;;5060534;28;20021;-67
2024/02/13 09:06:21;;;;;;;20.58;8.88;;;7.00;99.90;;;;;;5067128;28;20036;-67
2024/02/13 09:08:47;;;;;;;26.48;8.32;;;7.10;99.90;;;;;;5065671;28;20100;-65
2024/02/13 09:11:13;;;;;;;20.27;9.35;;;7.10;99.90;;;;;;5065882;28;20526;-67
2024/02/13 09:13:39;;;;;;;26.15;8.82;;;7.20;99.90;;;;;;5062441;28;20036;-66
2024/02/13 09:16:07;;;;;;;20.85;8.52;;;7.10;99.90;;;;;;5066642;28;20028;-65
2024/02/13 09:18:33;;;;;;;19.52;8.57;;;7.20;99.90;;;;;;5064382;28;20039;-66
2024/02/13 09:20:59;;;;;;;33.90;9.57;;;7.20;99.90;;;;;;5060535;28;20032;-67
2024/02/13 09:23:27;;;;;;;27.38;9.40;;;7.30;99.90;;;;;;5064374;28;20552;-65
2024/02/13 09:25:55;;;;;;;21.65;7.82;;;7.30;99.90;;;;;;5066541;28;20487;-68
2024/02/13 09:28:21;;;;;;;18.92;8.35;;;7.30;99.90;;;;;;5060345;28;20436;-66
2024/02/13 09:30:47;;;;;;;16.08;8.15;;;7.40;99.90;;;;;;5062651;28;20035;-66
2024/02/13 09:33:14;;;;;;;19.55;7.78;;;7.40;99.90;;;;;;5063437;28;20037;-65
2024/02/13 09:35:40;;;;;;;19.40;7.75;;;7.40;99.90;;;;;;5062989;28;20024;-67
2024/02/13 09:38:06;;;;;;;15.05;7.22;;;7.50;99.90;;;;;;5066740;28;20043;-67
2024/02/13 09:40:33;;;;;;;15.45;7.35;;;7.50;99.90;;;;;;5065395;28;20032;-66
2024/02/13 09:42:58;;;;;;;20.15;7.45;;;7.50;99.90;;;;;;5062160;28;20433;-66
2024/02/13 09:45:26;;;;;;;16.25;7.13;;;7.60;99.90;;;;;;5066894;28;20153;-67
2024/02/13 09:47:52;;;;;;;;;;;7.70;99.90;;;;;;5064929;28;20059;-65
2024/02/13 09:50:17;;;;;;;18.33;7.22;;;7.70;99.90;;;;;;5081514;28;19990;-66
2024/02/13 09:52:54;;;;;;;14.68;7.13;;;7.70;99.90;;;;;;5063458;28;20025;-67
2024/02/13 09:55:21;;;;;;;13.82;6.45;;;7.70;99.90;;;;;;5060086;28;20481;-65
2024/02/13 09:57:48;;;;;;;15.98;6.53;;;7.80;99.90;;;;;;5064095;28;20029;-66
2024/02/13 10:00:16;;;;;;;17.10;6.80;;;7.80;99.90;;;;;;5063076;28;20075;-66
2024/02/13 10:02:42;;;;;;;18.35;7.70;;;7.90;99.90;;;;;;5059868;28;20029;-67
2024/02/13 10:05:10;;;;;;;21.95;6.55;;;8.00;99.90;;;;;;5054740;28;20028;-66
2024/02/13 10:07:42;;;;;;;14.20;7.30;;;8.10;99.90;;;;;;5061470;28;20032;-67
2024/02/13 10:10:12;;;;;;;20.65;6.57;;;8.10;99.90;;;;;;5065665;28;20028;-65
2024/02/13 10:13:00;;;;;;;20.42;6.32;;;8.20;99.90;;;;;;5064902;28;20043;-66
2024/02/13 10:15:39;;;;;;;16.90;7.00;;;8.30;99.90;;;;;;5061678;28;20029;-70
2024/02/13 10:18:11;;;;;;;13.50;6.18;;;8.40;99.90;;;;;;5062793;28;20119;-66
2024/02/13 10:20:38;;;;;;;16.90;6.43;;;8.50;99.90;;;;;;5064184;28;20028;-67
2024/02/13 10:23:04;;;;;;;16.83;6.68;;;8.50;99.90;;;;;;5060392;28;20024;-69
2024/02/13 10:25:33;;;;;;;14.07;6.63;;;8.60;99.90;;;;;;5060981;28;20028;-68
2024/02/13 10:28:02;;;;;;;17.15;6.32;;;8.70;99.90;;;;;;5055876;28;20382;-66
2024/02/13 10:30:32;;;;;;;22.80;7.43;;;8.70;99.90;;;;;;5059683;28;20063;-68
2024/02/13 10:33:00;;;;;;;11.25;6.07;;;8.70;99.90;;;;;;5061001;28;20028;-68
2024/02/13 10:35:29;;;;;;;;;;;8.90;99.90;;;;;;5060129;28;20111;-68
2024/02/13 10:37:55;;;;;;;18.40;6.65;;;8.90;99.90;;;;;;5059158;28;19909;-66
2024/02/13 10:40:28;;;;;;;12.82;5.97;;;8.90;99.90;;;;;;5062130;28;20567;-67
2024/02/13 10:42:58;;;;;;;10.77;6.18;;;8.90;99.90;;;;;;5061023;28;20099;-66
2024/02/13 10:45:32;;;;;;;20.80;6.40;;;8.90;99.90;;;;;;5060907;28;20407;-66
2024/02/13 10:48:40;;;;;;;14.25;6.07;;;8.90;99.90;;;;;;5059590;28;20083;-66
2024/02/13 10:51:08;;;;;;;11.75;5.80;;;9.00;99.90;;;;;;5062303;28;20044;-67
2024/02/13 10:53:34;;;;;;;14.98;6.60;;;9.00;99.90;;;;;;5060333;28;20051;-66
2024/02/13 10:56:02;;;;;;;14.02;5.68;;;9.10;99.90;;;;;;5057494;28;20045;-66
2024/02/13 10:58:30;;;;;;;16.58;6.40;;;9.20;99.90;;;;;;5060602;28;20076;-65
2024/02/13 11:00:56;;;;;;;13.20;5.45;;;9.20;99.90;;;;;;5061349;28;20025;-66
2024/02/13 11:03:23;;;;;;;13.63;5.65;;;9.30;99.90;;;;;;5063931;28;20032;-69
2024/02/13 11:05:49;;;;;;;13.35;5.28;;;9.40;99.90;;;;;;5063341;28;20036;-68
2024/02/13 11:08:15;;;;;;;14.60;5.40;;;9.50;99.90;;;;;;5064441;28;20024;-66
2024/02/13 11:10:42;;;;;;;10.23;5.00;;;9.60;99.90;;;;;;5058377;28;20035;-70
2024/02/13 11:13:11;;;;;;;12.27;5.30;;;9.70;99.90;;;;;;5063478;28;20456;-68
2024/02/13 11:15:41;;;;;;;16.23;5.60;;;9.80;99.90;;;;;;5059625;28;20041;-66
2024/02/13 11:18:13;;;;;;;14.43;5.18;;;9.90;99.90;;;;;;5059211;28;20248;-67
2024/02/13 11:20:43;;;;;;;16.25;5.35;;;9.90;99.90;;;;;;5057410;28;20025;-66
2024/02/13 11:23:15;;;;;;;12.25;4.90;;;9.90;99.90;;;;;;5062359;28;20052;-66
2024/02/13 11:25:42;;;;;;;16.85;5.35;;;10.10;99.90;;;;;;5063045;28;20225;-66
2024/02/13 11:28:11;;;;;;;15.70;5.30;;;10.20;99.90;;;;;;5058687;28;20570;-66
2024/02/13 11:30:40;;;;;;;16.88;5.28;;;10.40;99.90;;;;;;5061755;28;20020;-66
2024/02/13 11:33:06;;;;;;;11.48;3.95;;;10.60;99.90;;;;;;5063738;28;20024;-68
2024/02/13 11:35:36;;;;;;;10.95;4.60;;;10.80;99.90;;;;;;5060907;28;20035;-65
2024/02/13 11:38:15;;;;;;;22.33;4.47;;;10.90;99.90;;;;;;5067797;28;20037;-66
2024/02/13 11:40:42;;;;;;;10.90;3.83;;;11.00;99.90;;;;;;5059921;28;20042;-67
2024/02/13 11:43:28;;;;;;;11.75;3.95;;;11.10;99.90;;;;;;5065623;28;20032;-66
2024/02/13 11:46:00;;;;;;;10.73;4.38;;;11.10;99.90;;;;;;5067234;28;20032;-67
2024/02/13 11:48:25;;;;;;;9.95;3.60;;;11.20;99.90;;;;;;5067273;28;20127;-70
2024/02/13 11:50:55;;;;;;;8.50;3.55;;;11.00;99.90;;;;;;5066452;28;20124;-67
2024/02/13 11:53:24;;;;;;;11.95;4.38;;;11.00;99.90;;;;;;5067561;28;20111;-66
2024/02/13 11:55:54;;;;;;;7.60;3.75;;;11.00;99.90;;;;;;5064217;28;20143;-65
2024/02/13 11:58:21;;;;;;;6.35;3.80;;;11.10;99.90;;;;;;5065879;28;20509;-68
2024/02/13 12:01:04;;;;;;;14.57;4.30;;;11.10;99.90;;;;;;5062913;28;20440;-66
2024/02/13 12:03:34;;;;;;;7.35;3.53;;;11.30;99.90;;;;;;5066174;28;20538;-67
2024/02/13 12:06:01;;;;;;;15.98;5.30;;;11.50;99.90;;;;;;5063746;28;20373;-66
2024/02/13 12:08:28;;;;;;;12.57;4.65;;;11.40;99.50;;;;;;5067425;28;20035;-66
2024/02/13 12:10:57;;;;;;;10.93;4.55;;;11.50;99.90;;;;;;5063140;28;20027;-66
2024/02/13 12:13:24;;;;;;;8.43;3.92;;;11.50;99.90;;;;;;5066452;28;20051;-67
2024/02/13 12:15:50;;;;;;;10.85;4.20;;;11.60;99.50;;;;;;5060372;28;20491;-67
2024/02/13 12:18:19;;;;;;;14.57;3.78;;;11.60;99.00;;;;;;5060888;28;20040;-66
2024/02/13 12:20:52;;;;;;;8.68;3.58;;;11.90;99.80;;;;;;5061518;28;20020;-67
2024/02/13 12:23:18;;;;;;;9.32;3.78;;;12.20;99.60;;;;;;5063245;28;20082;-67
2024/02/13 12:25:47;;;;;;;9.27;3.63;;;12.20;97.90;;;;;;5066609;28;20473;-66
2024/02/13 12:28:13;;;;;;;7.75;3.20;;;12.30;98.00;;;;;;5064549;28;20477;-67
2024/02/13 12:30:48;;;;;;;10.10;3.80;;;12.30;97.80;;;;;;5061939;28;20116;-66
2024/02/13 12:33:20;;;;;;;4.97;3.13;;;12.40;98.00;;;;;;5065696;28;20040;-67
2024/02/13 12:35:57;;;;;;;6.28;3.13;;;12.40;97.30;;;;;;5067083;28;20044;-66
2024/02/13 12:38:29;;;;;;;11.43;3.40;;;12.20;97.20;;;;;;5064836;28;20021;-65
2024/02/13 12:40:57;;;;;;;10.55;3.13;;;12.20;97.70;;;;;;5060203;28;20451;-67
2024/02/13 12:43:29;;;;;;;11.45;3.28;;;12.20;97.70;;;;;;5061364;28;20097;-68
2024/02/13 12:45:55;;;;;;;9.20;2.92;;;12.10;96.90;;;;;;5058434;28;20109;-66
2024/02/13 12:48:22;;;;;;;5.28;2.85;;;12.10;97.50;;;;;;5065163;28;20016;-66